Time;durP1;ratioP1;P1;durP2;ratioP2;P2;SDS_P1;SDS_P2;PMS_P1;PMS_P2;Temp;Humidity;BMP_temperature;BMP_pressure;BME280_temperature;BME280_humidity;BME280_pressure;Samples;Min_cycle;Max_cycle;Signal;HPM_P1;HPM_P2
2022/07/22 00:00:13;;;;;;;18.15;10.63;;;;;;;24.20;57.74;100912.81;2020548;29;20521;-65
2022/07/22 00:01:21;;;;;;;12.63;9.95;;;;;;;24.21;57.99;100919.13;2024814;29;20073;-65
2022/07/22 00:02:24;;;;;;;15.73;10.68;;;;;;;24.21;58.04;100916.38;2022452;29;20051;-64
2022/07/22 00:03:29;;;;;;;16.60;10.77;;;;;;;24.21;58.25;100919.94;2030710;29;20056;-65
2022/07/22 00:04:38;;;;;;;17.77;10.82;;;;;;;24.21;58.33;100914.44;2016548;29;20041;-65
2022/07/22 00:05:39;;;;;;;19.10;11.00;;;;;;;24.22;58.23;100915.22;1999775;29;20054;-64
2022/07/22 00:06:45;;;;;;;17.63;10.50;;;;;;;24.21;58.35;100919.94;1999811;29;20066;-64
2022/07/22 00:07:52;;;;;;;17.95;10.63;;;;;;;24.16;58.53;100911.97;2028367;29;20504;-64
2022/07/22 00:08:55;;;;;;;19.17;10.60;;;;;;;24.17;58.21;100913.56;2023055;29;20056;-64
2022/07/22 00:10:02;;;;;;;24.65;10.68;;;;;;;24.16;58.55;100914.72;2015515;29;20041;-64
2022/07/22 00:11:04;;;;;;;18.63;11.10;;;;;;;24.15;58.61;100915.88;2017216;29;20041;-65
2022/07/22 00:12:12;;;;;;;17.05;10.93;;;;;;;24.11;58.58;100916.94;2030766;29;20051;-64
2022/07/22 00:13:16;;;;;;;15.52;10.68;;;;;;;24.10;58.88;100907.91;2030665;29;20060;-65
2022/07/22 00:14:20;;;;;;;17.05;10.93;;;;;;;24.09;58.69;100914.59;2022936;29;21457;-65
2022/07/22 00:15:23;;;;;;;19.65;11.25;;;;;;;24.08;58.83;100918.47;2015577;29;20068;-64
2022/07/22 00:16:31;;;;;;;18.33;11.38;;;;;;;24.07;59.05;100916.09;2027774;29;20051;-64
2022/07/22 00:17:32;;;;;;;16.20;10.95;;;;;;;24.04;58.88;100920.34;2023401;29;20052;-64
2022/07/22 00:18:37;;;;;;;18.50;11.45;;;;;;;24.00;59.17;100919.50;2023473;29;20120;-65
2022/07/22 00:19:44;;;;;;;16.48;10.82;;;;;;;23.95;59.30;100925.25;2030879;29;20682;-63
2022/07/22 00:20:52;;;;;;;22.83;11.68;;;;;;;23.92;59.48;100918.53;2031674;29;20055;-63
2022/07/22 00:21:55;;;;;;;16.52;11.35;;;;;;;23.93;59.78;100931.13;2031540;29;20055;-63
2022/07/22 00:23:02;;;;;;;16.00;10.95;;;;;;;23.96;59.68;100932.34;2016351;29;20053;-63
2022/07/22 00:24:04;;;;;;;17.77;11.10;;;;;;;23.97;59.56;100922.97;2023651;29;20048;-63
2022/07/22 00:25:07;;;;;;;23.23;12.45;;;;;;;24.00;59.79;100919.50;2031917;29;20067;-63
2022/07/22 00:26:13;;;;;;;21.52;11.48;;;;;;;23.99;59.68;100926.94;2032242;29;20052;-63
2022/07/22 00:27:17;;;;;;;18.30;11.57;;;;;;;23.97;59.92;100932.00;2025495;29;20055;-63
2022/07/22 00:28:24;;;;;;;19.77;11.45;;;;;;;23.97;59.85;100925.72;2017047;29;20045;-63
2022/07/22 00:29:29;;;;;;;17.20;11.57;;;;;;;23.96;59.92;100918.59;2012593;29;20047;-62
2022/07/22 00:30:33;;;;;;;24.23;12.23;;;;;;;23.95;59.93;100917.03;2024528;29;20517;-63
2022/07/22 00:31:37;;;;;;;19.48;11.50;;;;;;;23.94;59.88;100926.44;2025280;29;20052;-63
2022/07/22 00:32:42;;;;;;;19.02;11.05;;;;;;;23.94;60.11;100923.69;2032133;29;20056;-63
2022/07/22 00:33:46;;;;;;;21.13;11.23;;;;;;;23.93;60.14;100922.88;2032164;29;20436;-63
2022/07/22 00:34:47;;;;;;;17.88;10.82;;;;;;;23.95;59.98;100928.00;2024455;29;20461;-63
2022/07/22 00:35:50;;;;;;;16.40;11.02;;;;;;;23.95;60.33;100923.31;2024130;29;20432;-63
2022/07/22 00:36:59;;;;;;;19.73;11.50;;;;;;;23.96;59.99;100922.16;2016753;29;20509;-63
2022/07/22 00:38:03;;;;;;;17.10;11.25;;;;;;;23.94;60.07;100923.69;2016631;29;20037;-63
2022/07/22 00:39:07;;;;;;;20.25;10.80;;;;;;;23.92;59.93;100923.25;2024577;29;20416;-63
2022/07/22 00:40:14;;;;;;;16.70;11.10;;;;;;;23.93;60.07;100930.31;2029520;29;20159;-63
2022/07/22 00:41:16;;;;;;;16.80;10.90;;;;;;;23.92;60.24;100921.28;2033151;29;20084;-63
2022/07/22 00:42:23;;;;;;;17.10;11.45;;;;;;;23.93;60.23;100922.88;2032365;29;20071;-63
2022/07/22 00:43:24;;;;;;;20.27;10.98;;;;;;;23.91;60.20;100921.66;2040297;29;20054;-63
2022/07/22 00:44:28;;;;;;;17.13;10.95;;;;;;;23.90;60.23;100914.59;2024155;29;20081;-63
2022/07/22 00:45:29;;;;;;;21.50;11.27;;;;;;;23.89;60.32;100913.75;2017125;29;20369;-63
2022/07/22 00:46:32;;;;;;;19.73;10.85;;;;;;;23.89;60.36;100921.22;2031101;29;20424;-63
2022/07/22 00:47:37;;;;;;;17.98;10.65;;;;;;;23.90;60.29;100911.84;2040388;29;20059;-63
2022/07/22 00:48:40;;;;;;;16.42;11.13;;;;;;;23.90;60.25;100909.09;2032291;29;20416;-62
2022/07/22 00:49:44;;;;;;;19.70;11.20;;;;;;;23.90;60.35;100911.84;2023940;29;20057;-63
2022/07/22 00:50:46;;;;;;;18.48;10.98;;;;;;;23.90;60.22;100914.59;2016741;29;20057;-63
2022/07/22 00:51:51;;;;;;;16.80;11.45;;;;;;;23.90;60.43;100914.59;2009030;29;20072;-63
2022/07/22 00:52:57;;;;;;;20.48;11.10;;;;;;;23.86;60.43;100911.72;2010972;29;20057;-64
2022/07/22 00:54:05;;;;;;;21.88;11.23;;;;;;;23.85;60.45;100923.09;2025704;29;20036;-62
2022/07/22 00:55:14;;;;;;;17.52;11.18;;;;;;;23.85;60.62;100917.59;2030900;29;20059;-63
2022/07/22 00:56:19;;;;;;;19.55;11.23;;;;;;;23.84;60.52;100921.50;2016504;29;20063;-63
2022/07/22 00:57:28;;;;;;;20.60;11.52;;;;;;;23.82;60.57;100908.91;2017813;29;20041;-63
2022/07/22 00:58:31;;;;;;;18.60;11.48;;;;;;;23.82;60.38;100908.91;2019089;29;20108;-63
2022/07/22 00:59:37;;;;;;;23.65;11.65;;;;;;;23.79;60.49;100906.09;2017000;29;20473;-63
2022/07/22 01:00:40;;;;;;;18.90;11.18;;;;;;;23.77;60.67;100909.22;2031632;29;20613;-63
2022/07/22 01:01:42;;;;;;;17.40;10.98;;;;;;;23.74;60.72;100907.19;2024401;29;20041;-63
2022/07/22 01:02:48;;;;;;;16.55;10.30;;;;;;;23.73;60.65;100900.09;2016048;29;20044;-63
2022/07/22 01:03:53;;;;;;;14.75;10.85;;;;;;;23.72;60.82;100898.50;2018132;29;20049;-63
2022/07/22 01:05:00;;;;;;;20.65;10.75;;;;;;;23.71;60.84;100896.94;2032691;29;20145;-63
2022/07/22 01:06:08;;;;;;;17.77;11.25;;;;;;;23.69;60.90;100901.19;2034844;29;20059;-63
2022/07/22 01:07:14;;;;;;;20.80;11.27;;;;;;;23.69;60.83;100904.72;2018148;29;20049;-63
2022/07/22 01:08:17;;;;;;;16.00;10.70;;;;;;;23.69;61.01;100899.22;2017885;29;20069;-63
2022/07/22 01:09:26;;;;;;;17.83;11.35;;;;;;;23.70;60.92;100894.53;2031599;29;20063;-63
2022/07/22 01:10:30;;;;;;;23.55;11.73;;;;;;;23.69;60.90;100888.25;2023369;29;20045;-63
2022/07/22 01:11:37;;;;;;;18.15;11.07;;;;;;;23.68;60.79;100878.41;2016335;29;20508;-63
2022/07/22 01:12:38;;;;;;;18.13;10.50;;;;;;;23.69;60.94;100893.75;2020988;29;20441;-63
2022/07/22 01:13:43;;;;;;;16.73;10.32;;;;;;;23.68;60.88;100892.13;2027382;29;20056;-63
2022/07/22 01:14:46;;;;;;;17.02;11.18;;;;;;;23.67;60.77;100889.72;2024988;29;20040;-63
2022/07/22 01:15:56;;;;;;;16.27;10.32;;;;;;;23.67;60.98;100884.22;2016102;29;20040;-63
2022/07/22 01:16:59;;;;;;;17.80;11.25;;;;;;;23.66;61.00;100885.41;2009599;29;20061;-63
2022/07/22 01:18:05;;;;;;;18.33;10.82;;;;;;;23.66;61.06;100893.63;2016835;29;20391;-63
2022/07/22 01:19:07;;;;;;;17.17;10.38;;;;;;;23.64;61.20;100890.44;2027078;29;20047;-63
2022/07/22 01:20:16;;;;;;;27.02;10.52;;;;;;;23.64;61.23;100890.44;2023515;29;20067;-63
2022/07/22 01:21:21;;;;;;;20.58;11.15;;;;;;;23.61;61.07;100886.47;2032037;29;20052;-63
2022/07/22 01:22:29;;;;;;;17.40;10.90;;;;;;;23.60;61.18;100888.41;2017658;29;20045;-63
2022/07/22 01:23:31;;;;;;;19.85;11.07;;;;;;;23.59;61.24;100886.03;2025104;29;20063;-63
2022/07/22 01:24:34;;;;;;;20.48;10.50;;;;;;;23.58;61.16;100884.44;2031687;29;20396;-63
2022/07/22 01:25:38;;;;;;;19.77;10.68;;;;;;;23.58;61.26;100881.69;2023993;29;20053;-63
2022/07/22 01:26:42;;;;;;;17.25;10.57;;;;;;;23.57;61.27;100877.38;2009153;29;20050;-63
2022/07/22 01:27:48;;;;;;;17.92;10.85;;;;;;;23.55;61.19;100879.69;2021854;29;20521;-62
2022/07/22 01:28:53;;;;;;;20.10;10.60;;;;;;;23.54;61.18;100886.31;2025539;29;20501;-63
2022/07/22 01:29:58;;;;;;;21.15;10.75;;;;;;;23.52;61.31;100881.19;2025445;29;20055;-63
2022/07/22 01:31:00;;;;;;;16.35;10.25;;;;;;;23.49;61.38;100876.41;2024209;29;20116;-63
2022/07/22 01:32:07;;;;;;;18.40;10.43;;;;;;;23.50;61.42;100879.97;2023644;29;20108;-63
2022/07/22 01:33:08;;;;;;;16.98;10.60;;;;;;;23.48;61.44;100876.75;2009137;29;20046;-63
2022/07/22 01:34:13;;;;;;;14.25;9.90;;;;;;;23.47;61.57;100878.72;2013519;29;20055;-63
2022/07/22 01:35:16;;;;;;;23.88;10.43;;;;;;;23.47;61.29;100880.66;2009278;29;20114;-63
2022/07/22 01:36:23;;;;;;;14.60;9.75;;;;;;;23.45;61.42;100883.75;2017625;29;20049;-64
2022/07/22 01:37:25;;;;;;;16.52;10.55;;;;;;;23.47;61.54;100891.66;2024565;29;20796;-63
2022/07/22 01:38:31;;;;;;;17.73;10.57;;;;;;;23.46;61.51;100888.13;2024495;29;20135;-63
2022/07/22 01:39:34;;;;;;;17.27;10.63;;;;;;;23.46;61.72;100887.31;2016334;29;20065;-63
2022/07/22 01:40:40;;;;;;;14.30;10.02;;;;;;;23.45;61.57;100881.00;2023310;29;20056;-63
2022/07/22 01:41:45;;;;;;;17.92;10.65;;;;;;;23.45;61.56;100882.97;2009640;29;20033;-65
2022/07/22 01:42:49;;;;;;;16.73;10.27;;;;;;;23.44;61.52;100887.66;2003303;29;20057;-62
2022/07/22 01:43:51;;;;;;;16.48;10.90;;;;;;;23.44;61.52;100881.38;2002034;29;20100;-62
2022/07/22 01:44:56;;;;;;;15.27;10.10;;;;;;;23.43;61.57;100880.59;2016252;29;20055;-62
2022/07/22 01:45:59;;;;;;;22.45;10.13;;;;;;;23.43;61.54;100885.28;2024849;29;20048;-62
2022/07/22 01:47:03;;;;;;;21.27;10.48;;;;;;;23.39;61.61;100873.41;2031751;29;20044;-62
2022/07/22 01:48:08;;;;;;;19.17;10.82;;;;;;;23.38;61.73;100878.13;2031781;29;20048;-62
2022/07/22 01:49:12;;;;;;;19.15;9.98;;;;;;;23.36;61.67;100881.25;2024868;29;20049;-61
2022/07/22 01:50:21;;;;;;;19.88;10.35;;;;;;;23.35;61.62;100874.13;2039760;29;20059;-62
2022/07/22 01:51:23;;;;;;;24.45;10.73;;;;;;;23.35;61.87;100871.38;2038242;29;20102;-62
2022/07/22 01:52:31;;;;;;;14.52;10.38;;;;;;;23.35;61.90;100884.31;2023804;29;20068;-62
2022/07/22 01:53:33;;;;;;;18.10;11.65;;;;;;;23.34;61.81;100871.75;2024990;29;20041;-62
2022/07/22 01:54:39;;;;;;;16.15;10.57;;;;;;;23.33;61.91;100873.72;2023851;29;20048;-62
2022/07/22 01:55:48;;;;;;;15.23;10.27;;;;;;;23.33;61.97;100870.97;2024271;29;20071;-62
2022/07/22 01:56:56;;;;;;;18.63;11.18;;;;;;;23.32;61.92;100869.38;2025815;29;20489;-62
2022/07/22 01:58:01;;;;;;;15.25;11.02;;;;;;;23.30;62.00;100871.69;2024644;29;20432;-62
2022/07/22 01:59:09;;;;;;;18.77;10.45;;;;;;;23.30;61.77;100876.38;2031952;29;20059;-62
2022/07/22 02:00:12;;;;;;;23.35;10.75;;;;;;;23.28;61.97;100868.50;2023944;29;20059;-62
2022/07/22 02:01:17;;;;;;;17.95;10.52;;;;;;;23.27;62.24;100866.13;2031609;29;20074;-62
2022/07/22 02:02:22;;;;;;;16.48;11.10;;;;;;;23.27;62.13;100877.09;2012569;29;20056;-62
2022/07/22 02:03:24;;;;;;;18.45;10.48;;;;;;;23.25;62.25;100874.69;2009473;29;20060;-62
2022/07/22 02:04:29;;;;;;;15.15;10.15;;;;;;;23.24;62.18;100878.59;2024020;29;20063;-63
2022/07/22 02:05:34;;;;;;;20.45;10.75;;;;;;;23.23;62.20;100865.22;1993786;29;20046;-62
2022/07/22 02:06:41;;;;;;;17.38;10.38;;;;;;;23.21;62.27;100871.09;1998159;29;20058;-62
2022/07/22 02:07:45;;;;;;;18.90;11.48;;;;;;;23.20;62.14;100866.72;2015586;29;20060;-62
2022/07/22 02:08:49;;;;;;;16.25;10.60;;;;;;;23.18;62.26;100863.56;2027177;29;20096;-62
2022/07/22 02:09:57;;;;;;;17.55;10.48;;;;;;;23.18;62.31;100862.78;2012238;29;20041;-62
2022/07/22 02:10:59;;;;;;;16.38;11.00;;;;;;;23.17;62.36;100856.50;1996122;29;20416;-62
2022/07/22 02:12:06;;;;;;;17.33;11.18;;;;;;;23.16;62.56;100860.38;2008395;29;20648;-62
2022/07/22 02:13:15;;;;;;;19.88;11.45;;;;;;;23.14;62.51;100862.69;2006814;29;20061;-62
2022/07/22 02:14:21;;;;;;;21.05;11.20;;;;;;;23.13;62.56;100856.38;2007635;29;20057;-62
2022/07/22 02:15:27;;;;;;;16.92;10.80;;;;;;;23.12;62.53;100862.25;2002569;29;20037;-62
2022/07/22 02:16:36;;;;;;;15.50;10.45;;;;;;;23.11;62.58;100863.41;2008214;29;20057;-62
2022/07/22 02:17:43;;;;;;;20.70;11.45;;;;;;;23.11;62.70;100857.91;2016721;29;20061;-62
2022/07/22 02:18:48;;;;;;;16.23;11.10;;;;;;;23.10;62.65;100861.78;2023456;29;20060;-62
2022/07/22 02:19:53;;;;;;;20.00;11.48;;;;;;;23.10;62.66;100862.59;2024319;29;20063;-62
2022/07/22 02:20:58;;;;;;;19.63;10.93;;;;;;;23.09;62.79;100862.97;2024911;29;20059;-62
2022/07/22 02:22:02;;;;;;;20.70;10.73;;;;;;;23.06;62.95;100860.94;2031719;29;20397;-62
2022/07/22 02:23:05;;;;;;;18.40;11.25;;;;;;;23.06;62.94;100858.19;2031757;29;20048;-62
2022/07/22 02:24:07;;;;;;;16.38;11.30;;;;;;;23.04;62.93;100858.53;2031568;29;20051;-62
2022/07/22 02:25:09;;;;;;;15.63;10.43;;;;;;;23.04;63.10;100861.25;2023647;29;20143;-62
2022/07/22 02:26:19;;;;;;;17.27;11.15;;;;;;;23.03;63.10;100856.16;2024213;29;20071;-62
2022/07/22 02:27:21;;;;;;;19.05;10.98;;;;;;;23.02;63.11;100860.84;2034658;29;20051;-62
2022/07/22 02:28:26;;;;;;;20.23;10.95;;;;;;;23.00;63.15;100868.63;2029664;29;20068;-62
2022/07/22 02:29:33;;;;;;;17.83;10.60;;;;;;;23.02;63.28;100873.75;2018286;29;20040;-62
2022/07/22 02:30:37;;;;;;;21.27;11.30;;;;;;;23.01;63.32;100880.38;2021270;29;20104;-62
2022/07/22 02:31:44;;;;;;;20.10;11.80;;;;;;;22.99;63.29;100877.22;2017596;29;20053;-62
2022/07/22 02:32:52;;;;;;;19.23;11.65;;;;;;;22.98;63.27;100889.31;2012206;29;20545;-62
2022/07/22 02:33:56;;;;;;;18.48;10.82;;;;;;;22.96;63.34;100881.47;2018774;29;20406;-62
2022/07/22 02:35:01;;;;;;;16.15;10.98;;;;;;;22.95;63.36;100885.38;2023913;29;20057;-62
2022/07/22 02:36:08;;;;;;;15.73;10.80;;;;;;;22.95;63.30;100884.53;2025868;29;20410;-62
2022/07/22 02:37:11;;;;;;;18.20;11.05;;;;;;;22.94;63.54;100891.19;2019184;29;20529;-64
2022/07/22 02:38:21;;;;;;;18.08;11.13;;;;;;;22.91;63.59;100892.66;2018337;29;20072;-63
2022/07/22 02:39:23;;;;;;;20.52;10.85;;;;;;;22.91;63.52;100895.41;2019845;29;20056;-64
2022/07/22 02:40:25;;;;;;;17.33;10.80;;;;;;;22.88;63.40;100894.16;2030818;29;20043;-63
2022/07/22 02:41:27;;;;;;;16.75;11.10;;;;;;;22.86;63.70;100896.47;2025837;29;20041;-62
2022/07/22 02:42:32;;;;;;;21.20;11.45;;;;;;;22.84;63.80;100892.47;2026113;29;20068;-62
2022/07/22 02:43:41;;;;;;;16.17;10.82;;;;;;;22.83;63.90;100899.13;2033995;29;20048;-62
2022/07/22 02:44:43;;;;;;;21.00;11.20;;;;;;;22.83;63.87;100902.66;2026713;29;20148;-62
2022/07/22 02:45:45;;;;;;;21.73;11.85;;;;;;;22.83;63.85;100899.91;2025471;29;20127;-62
2022/07/22 02:46:47;;;;;;;18.95;11.18;;;;;;;22.83;63.99;100904.59;2010303;29;20482;-62
2022/07/22 02:47:59;;;;;;;20.38;11.15;;;;;;;22.83;63.81;100908.13;2010752;29;20045;-62
2022/07/22 02:49:12;;;;;;;18.23;11.38;;;;;;;22.81;63.89;100904.94;2012420;29;20045;-62
2022/07/22 02:50:17;;;;;;;18.92;11.85;;;;;;;22.83;64.00;100904.59;2012598;29;20057;-62
2022/07/22 02:51:26;;;;;;;18.25;11.68;;;;;;;22.79;64.10;100906.44;2017905;29;20052;-64
2022/07/22 02:52:28;;;;;;;23.98;12.20;;;;;;;22.79;63.99;100912.75;2026494;29;20096;-64
2022/07/22 02:53:32;;;;;;;18.45;11.50;;;;;;;22.77;64.12;100906.81;2032851;29;20055;-64
2022/07/22 02:54:37;;;;;;;17.58;12.02;;;;;;;22.78;64.01;100904.84;2011622;29;20045;-62
2022/07/22 02:55:43;;;;;;;18.25;11.02;;;;;;;22.77;64.09;100906.81;2018373;29;20060;-62
2022/07/22 02:56:48;;;;;;;16.88;11.50;;;;;;;22.75;64.12;100902.81;2019636;29;20068;-62
2022/07/22 02:57:50;;;;;;;19.88;11.20;;;;;;;22.74;64.25;100899.28;2032912;29;20063;-64
2022/07/22 02:58:52;;;;;;;22.98;12.02;;;;;;;22.74;64.12;100902.03;2025422;29;20043;-62
2022/07/22 02:59:55;;;;;;;18.58;11.80;;;;;;;22.73;64.26;100897.72;2024924;29;20045;-62
2022/07/22 03:00:57;;;;;;;23.15;12.45;;;;;;;22.72;64.46;100898.84;2029303;29;20357;-62
2022/07/22 03:02:00;;;;;;;23.20;11.73;;;;;;;22.71;64.36;100900.00;2017837;29;20059;-62
2022/07/22 03:03:04;;;;;;;23.00;12.15;;;;;;;22.70;64.45;100895.66;2010957;29;20041;-64
2022/07/22 03:04:11;;;;;;;18.52;11.95;;;;;;;22.71;64.40;100899.19;2018381;29;20076;-62
2022/07/22 03:05:14;;;;;;;20.73;12.23;;;;;;;22.70;64.62;100903.91;2022158;29;20053;-62
2022/07/22 03:06:26;;;;;;;21.13;11.88;;;;;;;22.71;64.60;100900.00;2007540;29;20073;-62
2022/07/22 03:07:50;;;;;;;20.85;11.57;;;;;;;22.71;64.60;100902.72;2017668;29;20049;-62
2022/07/22 03:09:19;;;;;;;16.75;11.55;;;;;;;22.71;64.61;100899.19;2024959;29;20413;-62
2022/07/22 03:10:26;;;;;;;18.80;12.15;;;;;;;22.71;64.50;100899.19;2009824;29;20048;-64
2022/07/22 03:11:32;;;;;;;20.27;12.35;;;;;;;22.70;64.75;100894.84;2012218;29;20061;-63
2022/07/22 03:12:37;;;;;;;19.73;11.57;;;;;;;22.69;64.66;100905.03;2021844;29;20116;-63
2022/07/22 03:13:41;;;;;;;19.45;11.32;;;;;;;22.68;64.84;100900.69;2018207;29;20474;-64
2022/07/22 03:14:43;;;;;;;17.80;11.43;;;;;;;22.67;64.99;100899.91;2010901;29;20064;-62
2022/07/22 03:15:50;;;;;;;17.95;11.65;;;;;;;22.69;64.86;100896.81;2018432;29;20064;-62
2022/07/22 03:16:53;;;;;;;17.35;12.00;;;;;;;22.70;64.92;100903.06;2011211;29;20053;-62
2022/07/22 03:18:02;;;;;;;21.02;12.32;;;;;;;22.69;64.89;100902.28;2026096;29;20052;-62
2022/07/22 03:19:03;;;;;;;19.67;11.88;;;;;;;22.69;64.80;100910.50;2018155;29;20048;-62
2022/07/22 03:20:11;;;;;;;17.02;11.63;;;;;;;22.69;64.98;100905.03;2010031;29;20041;-62
2022/07/22 03:21:14;;;;;;;21.88;12.02;;;;;;;22.68;64.75;100912.44;2011554;29;20049;-62
2022/07/22 03:22:16;;;;;;;19.13;11.55;;;;;;;22.68;64.90;100912.44;2017564;29;20061;-62
2022/07/22 03:23:23;;;;;;;20.52;11.77;;;;;;;22.70;64.78;100914.84;2010055;29;20057;-62
2022/07/22 03:24:28;;;;;;;20.70;11.95;;;;;;;22.69;64.83;100910.50;2018161;29;20061;-62
2022/07/22 03:25:36;;;;;;;22.70;11.95;;;;;;;22.70;64.82;100908.56;2032384;29;20056;-64
2022/07/22 03:26:43;;;;;;;18.45;11.55;;;;;;;22.71;64.85;100910.16;2017973;29;20068;-62
2022/07/22 03:27:58;;;;;;;23.30;12.30;;;;;;;22.72;64.84;100907.06;2027051;29;20033;-62
2022/07/22 03:29:00;;;;;;;20.25;11.77;;;;;;;22.72;64.57;100907.06;2026116;29;20040;-62
2022/07/22 03:30:05;;;;;;;18.35;11.63;;;;;;;22.74;64.67;100910.25;2018445;29;20463;-62
2022/07/22 03:31:16;;;;;;;22.45;12.02;;;;;;;22.77;64.62;100915.03;2023072;29;20045;-62
2022/07/22 03:32:19;;;;;;;19.98;12.18;;;;;;;22.78;64.68;100919.34;2033182;29;20036;-62
2022/07/22 03:33:23;;;;;;;19.02;12.57;;;;;;;22.81;64.60;100924.13;2017783;29;20048;-62
2022/07/22 03:34:28;;;;;;;23.30;12.25;;;;;;;22.82;64.45;100922.19;2025327;29;20059;-62
2022/07/22 03:35:39;;;;;;;19.48;11.65;;;;;;;22.84;64.54;100928.91;2032254;29;20062;-62
2022/07/22 03:36:46;;;;;;;23.63;11.50;;;;;;;22.86;64.46;100932.09;2025396;29;20053;-62
2022/07/22 03:37:51;;;;;;;20.58;11.10;;;;;;;22.89;64.50;100936.09;2025349;29;20053;-62
2022/07/22 03:39:00;;;;;;;22.52;11.55;;;;;;;22.90;64.44;100941.22;2019068;29;20060;-62
2022/07/22 03:40:07;;;;;;;18.83;11.45;;;;;;;22.92;64.51;100938.13;2007781;29;20052;-62
2022/07/22 03:41:09;;;;;;;19.17;11.00;;;;;;;22.95;64.49;100942.94;2018018;29;20063;-66
2022/07/22 03:42:14;;;;;;;16.35;10.80;;;;;;;22.99;64.47;100951.25;2025157;29;20052;-62
2022/07/22 03:43:24;;;;;;;19.67;11.85;;;;;;;23.01;64.41;100948.94;2019548;29;20040;-62
2022/07/22 03:44:27;;;;;;;18.15;11.13;;;;;;;23.03;64.48;100954.88;2032357;29;20443;-62
2022/07/22 03:45:35;;;;;;;16.98;11.15;;;;;;;23.07;64.54;100955.75;2032314;29;20059;-63
2022/07/22 03:46:38;;;;;;;16.90;10.38;;;;;;;23.11;64.55;100962.16;2026049;29;20060;-62
2022/07/22 03:47:41;;;;;;;13.55;10.68;;;;;;;23.13;64.57;100959.81;2017033;29;20056;-62
2022/07/22 03:48:43;;;;;;;22.33;10.82;;;;;;;23.17;64.56;100966.22;2017707;29;20053;-62
2022/07/22 03:49:51;;;;;;;17.20;10.27;;;;;;;23.20;64.28;100965.47;2024533;29;20056;-62
2022/07/22 03:50:59;;;;;;;21.70;11.00;;;;;;;23.23;64.41;100970.25;2019073;29;20037;-62
2022/07/22 03:52:08;;;;;;;20.13;10.88;;;;;;;23.28;64.32;100972.75;2003205;29;20045;-62
2022/07/22 03:53:12;;;;;;;18.83;10.95;;;;;;;23.31;64.24;100974.00;2019239;29;20065;-62
2022/07/22 03:54:21;;;;;;;16.55;10.52;;;;;;;23.34;64.03;100971.31;2024918;29;20059;-62
2022/07/22 03:55:23;;;;;;;19.80;11.00;;;;;;;23.38;64.13;100970.63;2027115;29;20051;-62
2022/07/22 03:56:27;;;;;;;18.83;10.60;;;;;;;23.41;64.08;100969.91;2025139;29;20048;-62
2022/07/22 03:57:29;;;;;;;15.82;10.65;;;;;;;23.45;63.94;100979.03;2018128;29;20061;-62
2022/07/22 03:58:46;;;;;;;20.75;10.93;;;;;;;23.50;64.06;100976.00;2018631;29;20037;-62
2022/07/22 03:59:48;;;;;;;20.92;11.05;;;;;;;23.52;63.84;100977.25;2011499;29;20068;-62
2022/07/22 04:00:58;;;;;;;23.83;10.63;;;;;;;23.57;63.91;100976.16;2013222;29;20057;-62
2022/07/22 04:02:00;;;;;;;19.85;11.30;;;;;;;23.60;63.67;100972.72;2018766;29;20076;-62
2022/07/22 04:03:02;;;;;;;17.73;10.73;;;;;;;23.63;63.51;100969.25;2017248;29;20418;-62
2022/07/22 04:04:26;;;;;;;20.30;10.85;;;;;;;23.66;63.48;100965.78;2019217;29;20051;-62
2022/07/22 04:05:30;;;;;;;20.92;11.20;;;;;;;23.69;63.43;100962.38;2009188;29;20069;-62
2022/07/22 04:06:33;;;;;;;15.73;10.38;;;;;;;23.72;63.56;100958.91;2003249;29;20049;-63
2022/07/22 04:07:47;;;;;;;20.25;11.27;;;;;;;23.77;63.57;100953.16;2011005;29;20057;-62
2022/07/22 04:08:57;;;;;;;17.98;10.85;;;;;;;23.80;63.49;100948.88;2015183;29;20101;-62
2022/07/22 04:10:05;;;;;;;17.05;10.88;;;;;;;23.82;63.14;100952.84;2024781;29;20049;-62
2022/07/22 04:11:08;;;;;;;17.42;10.60;;;;;;;23.84;63.07;100943.47;2010258;29;20097;-62
2022/07/22 04:12:09;;;;;;;17.42;10.88;;;;;;;23.88;63.05;100945.13;2017745;29;20052;-62
2022/07/22 04:13:30;;;;;;;20.35;10.77;;;;;;;23.95;62.97;100939.00;2024887;29;20523;-62
2022/07/22 04:14:34;;;;;;;22.67;11.05;;;;;;;23.99;62.95;100932.44;2025052;29;20044;-62
2022/07/22 04:15:36;;;;;;;19.65;10.50;;;;;;;24.03;62.86;100930.56;2025528;29;20040;-62
2022/07/22 04:16:38;;;;;;;17.00;10.05;;;;;;;24.08;62.89;100931.41;2024347;29;20056;-62
2022/07/22 04:17:45;;;;;;;20.42;10.20;;;;;;;24.12;62.70;100930.34;2024414;29;20056;-62
2022/07/22 04:18:49;;;;;;;22.52;11.27;;;;;;;24.17;62.81;100927.28;2025294;29;20049;-61
2022/07/22 04:20:00;;;;;;;19.25;10.38;;;;;;;24.23;62.56;100923.09;2017674;29;20063;-64
2022/07/22 04:21:11;;;;;;;17.90;10.77;;;;;;;24.27;62.45;100923.97;2018701;29;20052;-62
2022/07/22 04:22:37;;;;;;;15.82;10.48;;;;;;;24.33;62.11;100916.22;2026640;29;20059;-62
2022/07/22 04:23:39;;;;;;;17.25;10.20;;;;;;;24.37;62.13;100910.78;2024002;29;20067;-62
2022/07/22 04:24:55;;;;;;;19.92;10.80;;;;;;;24.43;62.07;100917.59;2028098;29;20045;-62
2022/07/22 04:25:59;;;;;;;19.85;10.73;;;;;;;24.47;61.79;100916.53;2021279;29;20090;-63
2022/07/22 04:27:03;;;;;;;18.95;10.23;;;;;;;24.52;61.45;100916.22;2018139;29;20044;-62
2022/07/22 04:28:05;;;;;;;16.30;10.25;;;;;;;24.57;61.14;100915.13;2032418;29;20052;-62
2022/07/22 04:29:10;;;;;;;20.40;9.88;;;;;;;24.62;60.89;100914.84;2024829;29;20067;-62
2022/07/22 04:30:16;;;;;;;16.85;10.05;;;;;;;24.67;60.80;100914.53;2009268;29;20057;-62
2022/07/22 04:31:24;;;;;;;16.55;10.52;;;;;;;24.71;61.10;100909.88;2013076;29;20083;-62
2022/07/22 04:32:36;;;;;;;16.42;10.80;;;;;;;24.79;60.63;100912.78;2016825;29;20521;-62
2022/07/22 04:33:41;;;;;;;17.65;10.52;;;;;;;24.84;60.50;100904.19;2016298;29;20064;-61
2022/07/22 04:34:43;;;;;;;21.45;10.57;;;;;;;24.88;60.19;100907.81;2017104;29;20045;-62
2022/07/22 04:35:48;;;;;;;15.88;10.45;;;;;;;24.92;60.26;100903.16;2016306;29;20033;-62
2022/07/22 04:36:53;;;;;;;18.27;11.00;;;;;;;24.97;60.02;100903.66;2012579;29;20068;-62
2022/07/22 04:37:55;;;;;;;19.05;10.13;;;;;;;25.01;59.72;100905.66;2024064;29;20060;-62
2022/07/22 04:38:58;;;;;;;19.35;10.23;;;;;;;25.05;59.08;100898.25;2023224;29;20052;-61
2022/07/22 04:40:03;;;;;;;21.02;10.38;;;;;;;25.09;59.21;100899.09;2016913;29;20571;-62
2022/07/22 04:41:06;;;;;;;19.35;10.60;;;;;;;25.14;58.90;100899.63;2001888;29;20057;-61
2022/07/22 04:42:10;;;;;;;19.65;10.10;;;;;;;25.19;58.18;100898.53;2022687;29;20394;-62
2022/07/22 04:43:20;;;;;;;17.75;10.07;;;;;;;25.25;58.33;100893.47;2020511;29;20053;-62
2022/07/22 04:44:25;;;;;;;19.15;10.65;;;;;;;25.30;58.40;100893.19;2011906;29;20076;-62
2022/07/22 04:45:27;;;;;;;17.15;10.35;;;;;;;25.35;58.24;100892.88;2021016;29;20064;-62
2022/07/22 04:46:34;;;;;;;21.83;10.20;;;;;;;25.40;58.22;100889.78;2030751;29;20039;-62
2022/07/22 04:47:42;;;;;;;21.20;10.73;;;;;;;25.42;58.31;100899.25;2022120;29;20037;-62
2022/07/22 04:48:50;;;;;;;24.33;10.43;;;;;;;25.36;58.49;100895.22;2017294;29;20044;-62
2022/07/22 04:49:51;;;;;;;17.08;10.48;;;;;;;25.29;58.47;100900.63;2018087;29;20044;-62
2022/07/22 04:50:57;;;;;;;20.13;10.20;;;;;;;25.25;58.41;100894.25;2023033;29;20060;-62
2022/07/22 04:51:58;;;;;;;19.15;10.55;;;;;;;25.22;58.87;100900.53;2023473;29;20048;-62
2022/07/22 04:53:12;;;;;;;17.88;11.02;;;;;;;25.16;58.84;100889.06;2019099;29;20073;-62
2022/07/22 04:54:21;;;;;;;18.55;10.40;;;;;;;25.13;59.11;100892.53;2023800;29;20092;-63
2022/07/22 04:55:24;;;;;;;18.90;10.95;;;;;;;25.10;59.07;100882.25;2015853;29;20052;-63
2022/07/22 04:56:27;;;;;;;16.88;10.30;;;;;;;25.09;58.69;100885.34;2031430;29;20064;-63
2022/07/22 04:57:29;;;;;;;22.95;10.75;;;;;;;25.06;58.77;100883.34;2020627;29;20056;-63